Time;durP1;ratioP1;P1;durP2;ratioP2;P2;SDS_P1;SDS_P2;PMS_P1;PMS_P2;Temp;Humidity;BMP_temperature;BMP_pressure;BME280_temperature;BME280_humidity;BME280_pressure;Samples;Min_cycle;Max_cycle;Signal;HPM_P1;HPM_P2
2022/09/10 00:00:56;;;;;;;21.80;18.63;;;14.70;99.90;;;;;;4968848;28;20043;-64
2022/09/10 00:03:22;;;;;;;23.00;17.88;;;14.70;99.90;;;;;;4969356;28;20581;-64
2022/09/10 00:05:49;;;;;;;35.17;18.33;;;14.70;99.90;;;;;;4969716;28;20058;-64
2022/09/10 00:08:15;;;;;;;22.77;18.98;;;14.70;99.90;;;;;;4968699;28;20063;-64
2022/09/10 00:10:45;;;;;;;29.25;19.65;;;14.60;99.90;;;;;;4968496;28;20043;-64
2022/09/10 00:13:14;;;;;;;26.58;19.17;;;14.70;99.90;;;;;;4969384;28;20412;-64
2022/09/10 00:15:45;;;;;;;29.05;18.80;;;14.60;99.90;;;;;;4968833;28;20102;-64
2022/09/10 00:18:13;;;;;;;26.38;20.83;;;14.70;99.90;;;;;;4969468;28;20404;-64
2022/09/10 00:20:49;;;;;;;23.83;19.63;;;14.60;99.90;;;;;;4970010;28;20054;-64
2022/09/10 00:23:19;;;;;;;27.73;20.00;;;14.60;99.90;;;;;;4969376;28;20775;-64
2022/09/10 00:25:46;;;;;;;27.35;20.83;;;14.60;99.90;;;;;;4969531;28;20054;-64
2022/09/10 00:28:12;;;;;;;33.03;23.50;;;14.70;99.90;;;;;;4969196;28;20574;-64
2022/09/10 00:30:46;;;;;;;28.08;20.17;;;14.70;99.90;;;;;;4969126;28;20290;-64
2022/09/10 00:33:13;;;;;;;23.75;19.63;;;14.70;99.90;;;;;;4969643;28;20100;-64
2022/09/10 00:35:39;;;;;;;36.88;24.75;;;14.70;99.90;;;;;;4969260;28;20062;-65
2022/09/10 00:38:06;;;;;;;32.58;22.23;;;14.70;99.90;;;;;;4969638;28;20500;-64
2022/09/10 00:40:32;;;;;;;31.33;19.35;;;14.70;99.90;;;;;;4968832;28;20628;-64
2022/09/10 00:42:58;;;;;;;32.25;22.15;;;14.70;99.90;;;;;;4969039;28;20554;-64
2022/09/10 00:45:33;;;;;;;30.35;21.75;;;14.70;99.90;;;;;;4968647;28;20134;-64
2022/09/10 00:48:06;;;;;;;24.25;19.70;;;14.70;99.90;;;;;;4969141;28;20047;-64
2022/09/10 00:50:37;;;;;;;37.90;25.13;;;14.80;99.90;;;;;;4968785;28;20051;-64
2022/09/10 00:53:06;;;;;;;31.17;22.08;;;14.80;99.90;;;;;;4968060;28;20054;-63
2022/09/10 00:55:38;;;;;;;30.70;23.30;;;14.80;99.90;;;;;;4964193;28;20403;-64
2022/09/10 00:58:07;;;;;;;26.55;20.25;;;14.80;99.90;;;;;;4967346;28;20457;-64
2022/09/10 01:00:33;;;;;;;29.48;22.02;;;14.80;99.90;;;;;;4968764;28;20463;-64
2022/09/10 01:03:00;;;;;;;32.88;21.63;;;14.80;99.90;;;;;;4969024;28;20142;-64
2022/09/10 01:05:27;;;;;;;25.40;22.52;;;14.80;99.90;;;;;;4971537;28;20134;-64
2022/09/10 01:07:52;;;;;;;33.60;23.98;;;14.80;99.90;;;;;;4963203;28;20049;-64
2022/09/10 01:10:27;;;;;;;30.73;21.80;;;14.80;99.90;;;;;;4971774;28;20043;-64
2022/09/10 01:13:26;;;;;;;38.80;25.77;;;14.80;99.90;;;;;;4971218;28;20496;-65
2022/09/10 01:16:15;;;;;;;37.00;27.25;;;14.80;99.90;;;;;;4961360;28;20042;-64
2022/09/10 01:18:52;;;;;;;37.90;25.98;;;14.80;99.90;;;;;;4972784;28;20086;-65
2022/09/10 01:21:44;;;;;;;43.35;28.02;;;14.80;99.90;;;;;;4972624;28;20057;-64
2022/09/10 01:24:43;;;;;;;32.65;25.67;;;14.90;99.90;;;;;;4959259;28;20400;-64
2022/09/10 01:27:25;;;;;;;35.45;24.33;;;14.90;99.90;;;;;;4969114;28;20090;-64
2022/09/10 01:30:18;;;;;;;30.88;25.13;;;14.90;99.90;;;;;;4971777;28;20046;-64
2022/09/10 01:33:01;;;;;;;38.22;28.17;;;15.00;99.90;;;;;;4961091;28;20118;-64
2022/09/10 01:35:35;;;;;;;33.92;25.15;;;15.00;99.90;;;;;;4971007;28;20057;-64
2022/09/10 01:38:05;;;;;;;28.20;22.27;;;15.00;99.90;;;;;;4972049;28;20084;-64
2022/09/10 01:40:32;;;;;;;33.72;24.42;;;15.00;99.90;;;;;;4964016;28;20050;-64
2022/09/10 01:43:03;;;;;;;34.03;23.77;;;15.00;99.90;;;;;;4970802;28;20054;-64
2022/09/10 01:45:35;;;;;;;47.22;27.70;;;15.10;99.90;;;;;;4971820;28;20050;-64
2022/09/10 01:48:27;;;;;;;35.22;25.30;;;15.10;99.90;;;;;;4958485;28;20050;-64
2022/09/10 01:51:03;;;;;;;39.13;27.55;;;15.10;99.90;;;;;;4971927;28;20123;-64
2022/09/10 01:54:00;;;;;;;35.80;26.20;;;15.10;99.90;;;;;;4971306;28;20129;-65
2022/09/10 01:56:39;;;;;;;38.65;27.38;;;15.10;99.90;;;;;;4971781;28;20047;-64
2022/09/10 01:59:49;;;;;;;42.35;28.08;;;15.10;99.90;;;;;;4970369;28;20527;-64
2022/09/10 02:02:21;;;;;;;39.00;28.17;;;15.10;99.90;;;;;;4968904;28;20077;-64
2022/09/10 02:04:49;;;;;;;43.15;27.80;;;15.00;99.90;;;;;;4972018;28;20105;-64
2022/09/10 02:07:18;;;;;;;39.03;27.67;;;15.10;99.90;;;;;;4971484;28;20125;-64
2022/09/10 02:09:44;;;;;;;43.20;28.88;;;15.10;99.90;;;;;;4971466;28;20074;-64
2022/09/10 02:12:20;;;;;;;42.10;29.85;;;15.10;99.90;;;;;;4971004;28;20057;-64
2022/09/10 02:14:54;;;;;;;41.85;29.95;;;15.10;99.90;;;;;;4969446;28;20050;-64
2022/09/10 02:17:22;;;;;;;37.97;28.25;;;15.10;99.90;;;;;;4970729;28;20062;-64
2022/09/10 02:19:53;;;;;;;46.83;32.75;;;15.10;99.90;;;;;;4971305;28;20462;-64
2022/09/10 02:22:19;;;;;;;42.80;30.00;;;15.10;99.90;;;;;;4971879;28;20043;-65
2022/09/10 02:24:46;;;;;;;41.92;30.08;;;15.10;99.90;;;;;;4971064;28;20166;-64
2022/09/10 02:27:12;;;;;;;40.80;27.52;;;15.10;99.90;;;;;;4957184;28;20507;-64
2022/09/10 02:29:38;;;;;;;58.55;30.52;;;15.10;99.90;;;;;;4971322;28;20066;-65
2022/09/10 02:32:05;;;;;;;37.42;28.48;;;15.10;99.90;;;;;;4970174;28;20045;-64
2022/09/10 02:34:31;;;;;;;39.33;28.45;;;15.10;99.90;;;;;;4971203;28;20046;-64
2022/09/10 02:36:57;;;;;;;36.38;27.00;;;15.10;99.90;;;;;;4971041;28;20035;-64
2022/09/10 02:39:23;;;;;;;40.10;26.75;;;15.10;99.90;;;;;;4971452;28;20074;-64
2022/09/10 02:41:49;;;;;;;41.53;29.17;;;15.10;99.90;;;;;;4970658;28;20067;-64
2022/09/10 02:44:14;;;;;;;38.63;27.83;;;15.10;99.90;;;;;;4971372;28;20061;-65
2022/09/10 02:46:40;;;;;;;38.65;27.48;;;15.10;99.90;;;;;;4970775;28;20550;-64
2022/09/10 02:49:06;;;;;;;44.78;30.40;;;15.20;99.90;;;;;;4968160;28;20050;-65
2022/09/10 02:51:32;;;;;;;45.15;30.77;;;15.20;99.90;;;;;;4968533;28;20043;-64
2022/09/10 02:53:57;;;;;;;37.53;29.02;;;15.10;99.90;;;;;;4971014;28;20043;-64
2022/09/10 02:56:23;;;;;;;41.72;30.00;;;15.20;99.90;;;;;;4971043;28;20046;-64
2022/09/10 02:58:49;;;;;;;41.25;28.73;;;15.10;99.90;;;;;;4970199;28;20084;-64
2022/09/10 03:01:19;;;;;;;38.60;29.42;;;15.20;99.90;;;;;;4970514;28;20512;-65
2022/09/10 03:03:49;;;;;;;51.10;32.00;;;15.20;99.90;;;;;;4965405;28;20050;-64
2022/09/10 03:06:15;;;;;;;36.05;28.17;;;15.20;99.90;;;;;;4954939;28;20418;-64
2022/09/10 03:08:41;;;;;;;37.70;28.92;;;15.20;99.90;;;;;;4970286;28;20043;-64
2022/09/10 03:11:06;;;;;;;41.92;30.48;;;15.20;99.90;;;;;;4970606;28;20042;-64
2022/09/10 03:13:33;;;;;;;47.47;29.70;;;15.20;99.90;;;;;;4968520;28;20109;-65
2022/09/10 03:15:59;;;;;;;35.05;27.40;;;15.20;99.90;;;;;;4970321;28;20035;-64
2022/09/10 03:18:26;;;;;;;40.90;28.75;;;15.20;99.90;;;;;;4969271;28;20130;-64
2022/09/10 03:20:52;;;;;;;62.50;35.40;;;15.20;99.90;;;;;;4970365;28;20403;-64
2022/09/10 03:23:18;;;;;;;38.70;26.42;;;15.10;99.90;;;;;;4969727;28;20051;-64
2022/09/10 03:25:45;;;;;;;48.50;29.23;;;15.20;99.90;;;;;;4969758;28;20043;-64
2022/09/10 03:28:12;;;;;;;38.03;29.30;;;15.20;99.90;;;;;;4969319;28;20051;-64
2022/09/10 03:30:39;;;;;;;43.22;30.45;;;15.20;99.90;;;;;;4970345;28;20557;-65
2022/09/10 03:33:06;;;;;;;39.85;28.77;;;15.20;99.90;;;;;;4968897;28;20050;-65
2022/09/10 03:35:32;;;;;;;43.45;30.27;;;15.20;99.90;;;;;;4969304;28;20046;-64
2022/09/10 03:37:57;;;;;;;34.90;27.48;;;15.20;99.90;;;;;;4969790;28;20035;-64
2022/09/10 03:40:23;;;;;;;38.20;27.10;;;15.20;99.90;;;;;;4969678;28;20051;-64
2022/09/10 03:42:49;;;;;;;39.50;30.70;;;15.20;99.90;;;;;;4969687;28;20073;-65
2022/09/10 03:45:14;;;;;;;48.15;31.27;;;15.20;99.90;;;;;;4963860;28;20389;-64
2022/09/10 03:47:42;;;;;;;47.92;33.25;;;15.20;99.90;;;;;;4969484;28;20101;-64
2022/09/10 03:50:07;;;;;;;39.03;28.67;;;15.10;99.90;;;;;;4970137;28;20043;-64
2022/09/10 03:52:34;;;;;;;39.42;29.25;;;15.20;99.90;;;;;;4969032;28;20035;-64
2022/09/10 03:55:00;;;;;;;48.45;30.85;;;15.20;99.90;;;;;;4969109;28;20061;-64
2022/09/10 03:57:25;;;;;;;42.60;30.45;;;15.10;99.90;;;;;;4970078;28;20043;-65
2022/09/10 03:59:51;;;;;;;48.10;32.25;;;15.10;99.90;;;;;;4968935;28;20054;-65
2022/09/10 04:02:17;;;;;;;43.78;29.95;;;15.10;99.90;;;;;;4968543;28;20057;-64
2022/09/10 04:04:42;;;;;;;42.70;30.58;;;15.10;99.90;;;;;;4969547;28;20042;-64
2022/09/10 04:07:11;;;;;;;51.47;31.58;;;15.10;99.90;;;;;;4969542;28;20432;-64
2022/09/10 04:09:37;;;;;;;41.00;30.67;;;15.10;99.90;;;;;;4970067;28;20051;-64
2022/09/10 04:12:03;;;;;;;47.40;32.55;;;15.10;99.90;;;;;;4968601;28;20057;-64
2022/09/10 04:14:28;;;;;;;51.80;32.25;;;15.10;99.90;;;;;;4968170;28;20043;-64
2022/09/10 04:16:57;;;;;;;48.50;33.38;;;15.10;99.90;;;;;;4958220;28;20045;-64
2022/09/10 04:19:23;;;;;;;44.67;31.75;;;15.10;99.90;;;;;;4966313;28;20089;-66
2022/09/10 04:21:51;;;;;;;43.88;31.25;;;15.20;99.90;;;;;;4966713;28;20508;-66
2022/09/10 04:24:17;;;;;;;52.72;31.63;;;15.10;99.90;;;;;;4969479;28;20862;-65
2022/09/10 04:26:43;;;;;;;57.63;31.75;;;15.20;99.90;;;;;;4965842;28;20043;-66
2022/09/10 04:29:08;;;;;;;51.22;32.33;;;15.20;99.90;;;;;;4965612;28;20050;-66
2022/09/10 04:31:34;;;;;;;51.58;33.22;;;15.10;99.90;;;;;;4968412;28;20512;-66
2022/09/10 04:34:00;;;;;;;42.55;31.48;;;15.20;99.90;;;;;;4958819;28;20118;-65
2022/09/10 04:36:28;;;;;;;49.40;32.30;;;15.20;99.90;;;;;;4965337;28;20047;-65
2022/09/10 04:38:53;;;;;;;52.70;33.17;;;15.20;99.90;;;;;;4965501;28;20045;-65
2022/09/10 04:41:19;;;;;;;44.85;30.58;;;15.20;99.90;;;;;;4968232;28;20050;-65
2022/09/10 04:43:45;;;;;;;45.30;30.85;;;15.20;99.90;;;;;;4968347;28;20057;-65
2022/09/10 04:46:11;;;;;;;45.13;31.67;;;15.20;99.90;;;;;;4968715;28;20174;-65
2022/09/10 04:48:37;;;;;;;45.47;32.33;;;15.20;99.90;;;;;;4955427;28;20127;-65
2022/09/10 04:51:03;;;;;;;49.05;33.25;;;15.20;99.90;;;;;;4968626;28;20066;-65
2022/09/10 04:53:30;;;;;;;48.65;30.50;;;15.20;99.90;;;;;;4968674;28;20066;-65
2022/09/10 04:55:56;;;;;;;62.45;31.10;;;15.20;99.90;;;;;;4968901;28;20102;-65
2022/09/10 04:58:22;;;;;;;49.05;31.60;;;15.20;99.90;;;;;;4968232;28;20592;-65
2022/09/10 05:00:48;;;;;;;42.72;29.83;;;15.20;99.90;;;;;;4968613;28;20126;-65
2022/09/10 05:03:13;;;;;;;45.17;29.58;;;15.20;99.90;;;;;;4968225;28;20049;-66
2022/09/10 05:05:41;;;;;;;55.72;33.15;;;15.20;99.90;;;;;;4968733;28;20400;-65
2022/09/10 05:08:07;;;;;;;60.45;34.72;;;15.30;99.90;;;;;;4968709;28;20085;-66
2022/09/10 05:10:35;;;;;;;48.63;31.08;;;15.20;99.90;;;;;;4969507;28;20086;-66
2022/09/10 05:13:01;;;;;;;50.65;31.08;;;15.20;99.90;;;;;;4966982;28;20763;-65
2022/09/10 05:15:27;;;;;;;48.75;31.48;;;15.20;99.90;;;;;;4969230;28;20496;-66
2022/09/10 05:17:53;;;;;;;50.97;32.85;;;15.30;99.90;;;;;;4968596;28;20051;-66
2022/09/10 05:20:19;;;;;;;37.65;28.25;;;15.30;99.90;;;;;;4968950;28;20253;-66
2022/09/10 05:22:45;;;;;;;51.30;31.67;;;15.30;99.90;;;;;;4969188;28;20200;-65
2022/09/10 05:25:11;;;;;;;53.28;31.63;;;15.30;99.90;;;;;;4983917;28;20467;-66
2022/09/10 05:27:37;;;;;;;43.78;29.90;;;15.30;99.90;;;;;;4966557;28;20042;-66
2022/09/10 05:30:04;;;;;;;51.53;32.85;;;15.30;99.90;;;;;;4968187;28;20097;-66
2022/09/10 05:32:31;;;;;;;42.50;30.27;;;15.30;99.90;;;;;;4968430;28;20046;-66
2022/09/10 05:34:57;;;;;;;47.65;31.08;;;15.30;99.90;;;;;;4968356;28;20046;-66
2022/09/10 05:37:23;;;;;;;52.35;32.03;;;15.40;99.90;;;;;;4968970;28;20043;-66
2022/09/10 05:39:49;;;;;;;50.50;31.40;;;15.40;99.90;;;;;;4967853;28;20718;-66
2022/09/10 05:42:15;;;;;;;50.25;29.92;;;15.30;99.90;;;;;;4968118;28;20062;-66
2022/09/10 05:44:40;;;;;;;64.32;32.30;;;15.30;99.90;;;;;;4967950;28;20039;-66
2022/09/10 05:47:06;;;;;;;49.15;30.05;;;15.40;99.90;;;;;;4967395;28;20043;-66
2022/09/10 05:49:33;;;;;;;47.65;31.08;;;15.40;99.90;;;;;;4968709;28;20043;-66
2022/09/10 05:51:58;;;;;;;44.08;29.17;;;15.30;99.90;;;;;;4971415;28;20031;-65
2022/09/10 05:54:24;;;;;;;49.40;30.50;;;15.40;99.90;;;;;;4971438;28;20046;-65
2022/09/10 05:56:50;;;;;;;57.22;32.00;;;15.40;99.90;;;;;;4971762;28;20059;-65
2022/09/10 05:59:16;;;;;;;49.75;31.27;;;15.40;99.90;;;;;;4971216;28;20117;-66
2022/09/10 06:01:41;;;;;;;47.85;31.65;;;15.40;99.90;;;;;;4971708;28;20074;-65
2022/09/10 06:04:08;;;;;;;49.58;32.20;;;15.40;99.90;;;;;;4970715;28;20042;-65
2022/09/10 06:06:34;;;;;;;54.38;30.13;;;15.40;99.90;;;;;;4971591;28;20046;-65
2022/09/10 06:08:59;;;;;;;62.83;31.92;;;15.40;99.90;;;;;;4969610;28;20034;-65
2022/09/10 06:11:25;;;;;;;41.55;30.38;;;15.40;99.90;;;;;;4968815;28;20409;-65
2022/09/10 06:13:51;;;;;;;49.58;32.55;;;15.50;99.90;;;;;;4964311;28;20054;-65
2022/09/10 06:16:17;;;;;;;44.72;30.83;;;15.40;99.90;;;;;;4969860;28;20101;-65
2022/09/10 06:18:44;;;;;;;50.90;32.90;;;15.40;99.90;;;;;;4972083;28;20054;-65
2022/09/10 06:21:15;;;;;;;43.42;30.83;;;15.50;99.90;;;;;;4967677;28;20038;-65
2022/09/10 06:23:42;;;;;;;46.42;30.67;;;15.50;99.90;;;;;;4970181;28;20177;-65
2022/09/10 06:26:13;;;;;;;53.22;34.53;;;15.50;99.90;;;;;;4968182;28;20078;-65
2022/09/10 06:28:39;;;;;;;56.67;34.97;;;15.50;99.90;;;;;;4964966;28;20122;-65
2022/09/10 06:31:06;;;;;;;56.47;35.60;;;15.50;99.90;;;;;;4964346;28;20611;-65
2022/09/10 06:33:32;;;;;;;73.65;37.85;;;15.50;99.90;;;;;;4963451;28;20081;-66
2022/09/10 06:36:00;;;;;;;48.95;32.72;;;15.60;99.90;;;;;;4966762;28;20050;-65
2022/09/10 06:38:32;;;;;;;56.42;35.83;;;15.60;99.90;;;;;;4962187;28;20047;-65
2022/09/10 06:41:01;;;;;;;57.08;35.78;;;15.60;99.90;;;;;;4967065;28;20417;-66
2022/09/10 06:43:30;;;;;;;60.97;37.45;;;15.60;99.90;;;;;;4970394;28;20556;-66
2022/09/10 06:45:56;;;;;;;61.83;36.85;;;15.60;99.90;;;;;;4965802;28;20046;-65
2022/09/10 06:48:26;;;;;;;68.75;39.15;;;15.60;99.90;;;;;;4965397;28;20070;-66
2022/09/10 06:51:00;;;;;;;59.38;38.05;;;15.60;99.90;;;;;;4967110;28;20041;-65
2022/09/10 06:53:32;;;;;;;66.03;38.58;;;15.60;99.90;;;;;;4956464;28;20038;-65
2022/09/10 06:55:59;;;;;;;64.78;38.10;;;15.60;99.90;;;;;;4966715;28;20043;-65
2022/09/10 06:58:25;;;;;;;66.10;39.53;;;15.60;99.90;;;;;;4966164;28;20499;-65
2022/09/10 07:00:51;;;;;;;68.72;40.00;;;15.60;99.90;;;;;;4964463;28;20043;-65
2022/09/10 07:03:19;;;;;;;67.35;38.28;;;15.60;99.90;;;;;;4968241;28;20066;-66
2022/09/10 07:05:45;;;;;;;70.25;40.25;;;15.60;99.90;;;;;;4968838;28;20758;-66
2022/09/10 07:08:13;;;;;;;63.92;37.63;;;15.60;99.90;;;;;;4963552;28;20043;-66
2022/09/10 07:10:39;;;;;;;77.80;42.77;;;15.60;99.90;;;;;;4966283;28;20669;-66
2022/09/10 07:13:05;;;;;;;80.55;40.13;;;15.60;99.90;;;;;;4967488;28;20300;-66
2022/09/10 07:15:32;;;;;;;94.95;47.20;;;15.70;99.90;;;;;;4964828;28;20047;-66
2022/09/10 07:17:58;;;;;;;70.28;42.33;;;15.60;99.90;;;;;;4965215;28;20039;-66
2022/09/10 07:20:24;;;;;;;72.07;40.83;;;15.60;99.90;;;;;;4964731;28;20050;-66
2022/09/10 07:22:55;;;;;;;75.78;42.95;;;15.60;99.90;;;;;;4966823;28;20035;-66
2022/09/10 07:25:25;;;;;;;68.63;41.00;;;15.70;99.90;;;;;;4969228;28;20078;-66
2022/09/10 07:27:51;;;;;;;64.45;37.30;;;15.60;99.90;;;;;;4971017;28;20042;-66
2022/09/10 07:30:17;;;;;;;68.35;40.20;;;15.70;99.90;;;;;;4969583;28;20043;-65
2022/09/10 07:32:44;;;;;;;78.20;41.92;;;15.70;99.90;;;;;;4969765;28;20038;-65
2022/09/10 07:35:10;;;;;;;76.65;40.78;;;15.70;99.90;;;;;;4971315;28;20055;-65
2022/09/10 07:37:38;;;;;;;71.38;43.28;;;15.70;99.90;;;;;;4970081;28;20747;-65
2022/09/10 07:40:04;;;;;;;86.90;45.97;;;15.70;99.90;;;;;;4969947;28;20043;-65
2022/09/10 07:42:30;;;;;;;68.07;40.25;;;15.70;99.90;;;;;;4970829;28;20062;-65
2022/09/10 07:44:55;;;;;;;76.55;43.00;;;15.70;99.90;;;;;;4970429;28;20416;-65
2022/09/10 07:47:23;;;;;;;66.05;39.97;;;15.70;99.90;;;;;;4968313;28;20039;-65
2022/09/10 07:49:49;;;;;;;67.50;40.10;;;15.70;99.90;;;;;;4969269;28;20047;-65
2022/09/10 07:52:16;;;;;;;82.10;42.83;;;15.80;99.90;;;;;;4969493;28;20352;-65
2022/09/10 07:54:41;;;;;;;70.75;37.42;;;15.80;99.90;;;;;;4971294;28;20146;-65
2022/09/10 07:57:07;;;;;;;62.72;36.47;;;15.80;99.90;;;;;;4970698;28;20462;-65
2022/09/10 07:59:33;;;;;;;76.60;42.92;;;15.80;99.90;;;;;;4970796;28;20054;-65
2022/09/10 08:01:59;;;;;;;74.40;41.53;;;15.90;99.90;;;;;;4969984;28;20046;-65
2022/09/10 08:04:24;;;;;;;79.05;41.10;;;15.90;99.90;;;;;;4965189;28;20058;-65
2022/09/10 08:06:50;;;;;;;74.65;40.75;;;15.90;99.90;;;;;;4967380;28;20097;-65
2022/09/10 08:09:18;;;;;;;70.70;39.38;;;16.00;99.90;;;;;;4969142;28;20082;-65
2022/09/10 08:11:44;;;;;;;67.78;39.13;;;16.00;99.90;;;;;;4968924;28;20074;-66
2022/09/10 08:14:11;;;;;;;76.15;40.20;;;16.00;99.90;;;;;;4969216;28;20070;-65
2022/09/10 08:16:37;;;;;;;72.93;41.53;;;16.10;99.90;;;;;;4968797;28;21014;-65
2022/09/10 08:19:03;;;;;;;67.32;38.15;;;16.10;99.90;;;;;;4969960;28;20155;-66
2022/09/10 08:21:29;;;;;;;63.50;37.40;;;16.10;99.90;;;;;;4968993;28;20085;-65
2022/09/10 08:23:55;;;;;;;73.95;38.55;;;16.10;99.90;;;;;;4966509;28;20094;-66
2022/09/10 08:26:23;;;;;;;69.85;37.15;;;16.10;99.90;;;;;;4961833;28;20051;-66
2022/09/10 08:28:51;;;;;;;;;;;16.20;99.90;;;;;;4969280;28;20101;-66
2022/09/10 08:31:16;;;;;;;66.97;36.90;;;16.10;99.90;;;;;;4968192;28;19932;-66
2022/09/10 08:33:51;;;;;;;65.10;36.13;;;16.10;99.90;;;;;;4968535;28;20788;-66
2022/09/10 08:36:18;;;;;;;65.85;36.40;;;16.20;99.90;;;;;;4968519;28;20862;-66
2022/09/10 08:38:45;;;;;;;67.78;36.58;;;16.20;99.90;;;;;;4969044;28;20075;-66
2022/09/10 08:41:34;;;;;;;64.85;36.67;;;16.30;99.90;;;;;;4966551;28;20047;-66
2022/09/10 08:44:09;;;;;;;63.20;38.45;;;16.30;99.90;;;;;;4967256;28;20063;-66
2022/09/10 08:47:14;;;;;;;61.75;35.97;;;16.40;99.90;;;;;;4970413;28;20137;-66
2022/09/10 08:49:54;;;;;;;65.35;37.35;;;16.50;99.90;;;;;;4959298;28;20046;-66
2022/09/10 08:52:28;;;;;;;64.90;36.90;;;16.40;99.90;;;;;;4969587;28;20051;-66
2022/09/10 08:55:05;;;;;;;57.38;34.85;;;16.50;99.90;;;;;;4969982;28;20544;-66
2022/09/10 08:57:45;;;;;;;61.45;34.78;;;16.60;99.90;;;;;;4969548;28;20041;-66
2022/09/10 09:00:15;;;;;;;59.80;36.33;;;16.60;99.90;;;;;;4967691;28;20046;-66
2022/09/10 09:03:05;;;;;;;58.05;35.42;;;16.70;99.90;;;;;;4967152;28;20047;-66
2022/09/10 09:05:46;;;;;;;54.45;33.03;;;16.80;99.90;;;;;;4967529;28;20492;-66
2022/09/10 09:08:15;;;;;;;62.83;34.30;;;16.80;99.90;;;;;;4966573;28;20058;-66
2022/09/10 09:10:48;;;;;;;50.03;31.52;;;16.80;99.90;;;;;;4958836;28;20042;-66
2022/09/10 09:13:25;;;;;;;67.75;36.80;;;16.90;99.90;;;;;;4966143;28;20039;-65
2022/09/10 09:16:09;;;;;;;59.28;35.25;;;17.00;99.90;;;;;;4963991;28;20153;-65
2022/09/10 09:18:56;;;;;;;59.35;31.45;;;17.10;99.90;;;;;;4968066;28;20046;-66
2022/09/10 09:21:49;;;;;;;59.10;32.05;;;17.30;99.90;;;;;;4961149;28;20047;-65
2022/09/10 09:24:42;;;;;;;44.42;30.45;;;17.40;99.90;;;;;;4961413;28;20061;-66
2022/09/10 09:27:15;;;;;;;45.70;28.73;;;17.50;99.90;;;;;;4971914;28;20051;-66
2022/09/10 09:29:50;;;;;;;45.45;29.25;;;17.60;99.90;;;;;;4968345;28;20043;-66
2022/09/10 09:32:19;;;;;;;44.95;28.48;;;17.70;99.90;;;;;;4971346;28;20129;-66
2022/09/10 09:35:01;;;;;;;41.13;27.02;;;17.70;99.90;;;;;;4972206;28;20043;-66
2022/09/10 09:37:29;;;;;;;55.53;28.55;;;17.80;99.90;;;;;;4967800;28;20039;-65
2022/09/10 09:40:04;;;;;;;39.90;23.63;;;17.80;99.90;;;;;;4967968;28;20042;-65
2022/09/10 09:43:14;;;;;;;41.47;24.83;;;17.80;99.90;;;;;;4970752;28;20067;-65
2022/09/10 09:45:42;;;;;;;42.67;24.10;;;17.80;99.90;;;;;;4969226;28;20051;-67
2022/09/10 09:48:14;;;;;;;30.52;20.95;;;17.70;99.90;;;;;;4967110;28;20061;-65
2022/09/10 09:50:45;;;;;;;32.38;21.30;;;17.80;99.90;;;;;;4971687;28;20035;-65
2022/09/10 09:53:18;;;;;;;28.20;20.45;;;17.80;99.90;;;;;;4970402;28;20121;-65
2022/09/10 09:55:48;;;;;;;43.28;24.25;;;17.80;99.90;;;;;;4971615;28;20050;-65
2022/09/10 09:58:20;;;;;;;39.58;23.33;;;17.90;99.90;;;;;;4959446;28;20043;-65
2022/09/10 10:01:04;;;;;;;26.48;19.80;;;17.90;99.90;;;;;;4969702;28;20125;-65
2022/09/10 10:04:00;;;;;;;32.28;21.33;;;17.90;99.90;;;;;;4966935;28;20053;-65
2022/09/10 10:06:46;;;;;;;30.63;19.90;;;18.00;99.90;;;;;;4969488;28;20078;-65
2022/09/10 10:09:20;;;;;;;39.50;21.77;;;18.00;99.90;;;;;;4969766;28;20137;-65
2022/09/10 10:11:55;;;;;;;32.72;22.15;;;18.00;99.90;;;;;;4967813;28;20045;-66
2022/09/10 10:14:41;;;;;;;37.20;22.98;;;18.00;99.90;;;;;;4969502;28;20051;-65
2022/09/10 10:17:25;;;;;;;30.20;22.58;;;18.10;99.90;;;;;;4963865;28;20142;-65
2022/09/10 10:20:13;;;;;;;36.45;22.73;;;18.10;99.90;;;;;;4967325;28;20046;-64
2022/09/10 10:22:44;;;;;;;31.60;20.73;;;18.10;99.90;;;;;;4968916;28;20035;-65
2022/09/10 10:25:29;;;;;;;27.90;19.92;;;18.10;99.90;;;;;;4969819;28;20051;-65
2022/09/10 10:27:56;;;;;;;39.45;22.35;;;18.20;99.90;;;;;;4966053;28;20046;-65
2022/09/10 10:30:23;;;;;;;36.10;22.10;;;18.20;99.90;;;;;;4969969;28;20046;-64
2022/09/10 10:32:58;;;;;;;33.70;25.73;;;18.30;99.90;;;;;;4970836;28;20089;-65
2022/09/10 10:35:43;;;;;;;33.38;23.52;;;18.30;99.90;;;;;;4970430;28;20123;-64
2022/09/10 10:38:30;;;;;;;37.35;24.00;;;18.30;99.90;;;;;;4968619;28;20074;-65
2022/09/10 10:41:26;;;;;;;29.13;21.43;;;18.40;99.90;;;;;;4968112;28;20093;-64
2022/09/10 10:44:16;;;;;;;38.55;22.77;;;18.50;99.90;;;;;;4969666;28;20361;-65
2022/09/10 10:47:04;;;;;;;29.85;21.70;;;18.60;99.90;;;;;;4963356;28;20053;-64
2022/09/10 10:49:59;;;;;;;37.85;22.92;;;18.60;99.90;;;;;;4970112;28;20050;-64
2022/09/10 10:53:07;;;;;;;32.95;21.75;;;18.60;99.90;;;;;;4969246;28;20039;-65
2022/09/10 10:55:38;;;;;;;;;;;18.60;99.90;;;;;;4974296;28;20108;-64
2022/09/10 10:58:28;;;;;;;32.35;21.70;;;18.50;99.90;;;;;;4960957;28;19964;-65
2022/09/10 11:01:04;;;;;;;27.83;20.23;;;18.50;99.90;;;;;;4963548;28;20049;-64
2022/09/10 11:03:43;;;;;;;32.60;20.92;;;18.60;99.90;;;;;;4963274;28;20043;-64
2022/09/10 11:06:13;;;;;;;35.80;20.50;;;18.70;99.90;;;;;;4964230;28;20054;-64
2022/09/10 11:08:50;;;;;;;31.23;20.45;;;18.60;99.90;;;;;;4970178;28;20046;-65
2022/09/10 11:11:50;;;;;;;29.38;18.83;;;18.70;99.90;;;;;;4970467;28;20047;-64
2022/09/10 11:14:50;;;;;;;25.50;18.02;;;18.70;99.90;;;;;;4962170;28;20134;-65
2022/09/10 11:17:45;;;;;;;27.52;18.20;;;18.80;99.90;;;;;;4963788;28;20042;-65
2022/09/10 11:20:25;;;;;;;28.50;19.00;;;18.90;99.90;;;;;;4968707;28;20054;-65
2022/09/10 11:23:17;;;;;;;24.25;17.77;;;18.90;99.90;;;;;;4961952;28;20519;-64
2022/09/10 11:25:48;;;;;;;23.52;18.95;;;19.10;99.90;;;;;;4964264;28;20101;-65
2022/09/10 11:28:29;;;;;;;24.60;17.60;;;19.10;99.90;;;;;;4969702;28;20050;-65
2022/09/10 11:31:03;;;;;;;30.77;18.58;;;19.30;99.90;;;;;;4967024;28;20130;-65
2022/09/10 11:33:40;;;;;;;29.02;18.63;;;19.40;99.90;;;;;;4969967;28;20042;-65
2022/09/10 11:36:38;;;;;;;26.42;16.45;;;19.70;99.90;;;;;;4967471;28;20049;-65
2022/09/10 11:39:27;;;;;;;24.42;17.27;;;19.70;99.90;;;;;;4942770;28;20055;-66
2022/09/10 11:41:56;;;;;;;25.80;16.35;;;19.80;99.90;;;;;;4967410;28;20121;-66
2022/09/10 11:44:46;;;;;;;21.58;14.48;;;19.80;99.90;;;;;;4968714;28;20373;-66
2022/09/10 11:47:26;;;;;;;30.25;20.60;;;19.80;99.90;;;;;;4968883;28;20050;-66
2022/09/10 11:50:22;;;;;;;26.27;17.67;;;19.70;99.90;;;;;;4955508;28;20121;-65
2022/09/10 11:52:49;;;;;;;23.48;16.30;;;19.80;99.90;;;;;;4963677;28;20039;-66
2022/09/10 11:55:16;;;;;;;23.52;16.52;;;19.80;99.90;;;;;;4967978;28;20059;-66
2022/09/10 11:58:10;;;;;;;20.63;14.95;;;19.80;99.90;;;;;;4967818;28;20041;-65
2022/09/10 12:00:51;;;;;;;17.67;13.90;;;19.80;99.90;;;;;;4968692;28;20133;-66
2022/09/10 12:03:17;;;;;;;18.23;13.27;;;19.80;99.90;;;;;;4969430;28;20047;-65
2022/09/10 12:06:05;;;;;;;20.13;13.45;;;19.90;99.90;;;;;;4964777;28;20089;-65
2022/09/10 12:09:06;;;;;;;18.70;13.55;;;20.00;99.90;;;;;;4964563;28;20043;-65
2022/09/10 12:11:55;;;;;;;18.30;12.50;;;20.00;99.90;;;;;;4969057;28;20043;-65
2022/09/10 12:14:20;;;;;;;30.05;14.95;;;20.10;99.90;;;;;;4959544;28;20146;-66
2022/09/10 12:16:58;;;;;;;20.48;13.75;;;20.10;99.90;;;;;;4957067;28;20429;-65
2022/09/10 12:19:31;;;;;;;23.10;16.70;;;20.20;99.90;;;;;;4962508;28;20043;-65
2022/09/10 12:22:04;;;;;;;19.35;13.45;;;20.30;99.90;;;;;;4965906;28;20034;-65
2022/09/10 12:24:35;;;;;;;26.77;15.57;;;20.40;99.90;;;;;;4968958;28;20038;-65
2022/09/10 12:27:04;;;;;;;21.23;15.57;;;20.40;99.90;;;;;;4969824;28;20057;-65
2022/09/10 12:29:35;;;;;;;28.50;15.95;;;20.40;99.90;;;;;;4970060;28;20081;-66
2022/09/10 12:32:07;;;;;;;23.10;15.10;;;20.40;99.90;;;;;;4968057;28;20054;-65
2022/09/10 12:34:33;;;;;;;18.55;13.75;;;20.40;99.90;;;;;;4970120;28;20046;-65
2022/09/10 12:36:59;;;;;;;18.17;14.00;;;20.30;99.90;;;;;;4968631;28;20400;-66
2022/09/10 12:39:28;;;;;;;17.83;14.35;;;20.30;99.90;;;;;;4964323;28;20047;-65
2022/09/10 12:42:00;;;;;;;21.17;14.75;;;20.30;99.90;;;;;;4969738;28;20082;-65
2022/09/10 12:44:35;;;;;;;24.25;14.73;;;20.30;99.90;;;;;;4968841;28;20456;-65
2022/09/10 12:47:15;;;;;;;16.60;12.02;;;20.30;99.90;;;;;;4969943;28;20427;-65
2022/09/10 12:49:54;;;;;;;23.90;14.27;;;20.30;99.90;;;;;;4969864;28;20051;-65
2022/09/10 12:52:43;;;;;;;24.15;15.20;;;20.30;99.90;;;;;;4964229;28;20123;-65